Hundvaag 1 weather for Feb 2009
Month no. 260
Obs.
Da.
Temp. Dew Point Precip. Wind
Speed
Wind gusts Cloud cover Press. Humidity Wind dir. Sunny OPT
01.02.2009 -2,7   0,0 0,0   0 1028,7 83,0 157,5   50,0 %
02.02.2009 -4,4   0,0 3,2   7 1024,6 90,0 45,0 1 67,5 %
03.02.2009 -1,0   0,0 0,0   10 1011,4 64,0 45,0 1 77,5 %
04.02.2009 0,5   0,0 0,0   0 996,5 94,0 247,5   55,0 %
05.02.2009 2,3   6,1 0,0   1 992,8 96,0 180,0 1 52,5 %
06.02.2009 1,8   2,3 0,0   1 990,4 87,0 45,0   57,5 %
07.02.2009 1,4   13,0 0,0   0 989,1 97,0 67,5 1 45,0 %
08.02.2009 -3,6   0,0 0,0   9 988,7 91,0 0,0 1 72,5 %
09.02.2009 -1,6   0,4 0,0   3 997,2 94,0 157,5 1 60,0 %
10.02.2009 -1,3   0,0 3,2   3 996,8 77,0 45,0 1 60,0 %
11.02.2009 -5,1   0,0 0,0   10 1006,7 91,0 337,5 1 75,0 %
12.02.2009 -2,7   0,0 1,6   3 1015,8 90,0 45,0 1 57,5 %
13.02.2009 -2,2   2,1 0,0   10 1017,2 93,0 22,5 1 77,5 %
14.02.2009 -5,3   0,0 0,0   5 1024,9 88,0 45,0 1 62,5 %
15.02.2009 1,9   2,5 1,6   0 1016,1 95,0 157,5   55,0 %
16.02.2009 2,6   5,5 0,0   0 1014,8 98,0 157,5   55,0 %
17.02.2009 0,0   10,6 0,0   0 1021,9 97,0 157,5   47,5 %
18.02.2009 2,6   7,5 0,0   0 1025,6 96,0 157,5   52,5 %
19.02.2009 3,4   1,8 0,0   0 1020,2 98,0 112,5   57,5 %
20.02.2009 2,4   0,6 0,0   5 1017,8 98,0 0,0 1 67,5 %
21.02.2009 3,4   1,0 0,0   0 1018,8 98,0 0,0   57,5 %
22.02.2009 5,5   29,8 0,0   10 1003,9 98,0 0,0 1 62,5 %
23.02.2009 2,9 1,7 2,7 0,0 0,0 9 1016,5 92,0 90,0 1 80,0 %
24.02.2009 2,3 1,0 0,1 3,7 3,7 0 1023,9 91,0 135,0   52,5 %
25.02.2009 5,5 4,8 1,7 3,7 4,0 0 1017,8 95,0 225,0   57,5 %
26.02.2009 3,7 2,7 9,2 8,2 8,2 1 998,9 93,0 292,5 1 47,5 %
27.02.2009 2,7 1,6 1,6 3,7 3,7 10 1010,4 92,0 315,0 1 80,0 %
28.02.2009 0,9 -3,2 0,0 16,7 16,7 1 1015,8 74,0 112,5 1 47,5 %
                       
                       
                       
Avrg/Sum 0,6 1,4 98,5 1,6 6,1 3,5 1010,8 91,1 119,7 17 60,4 %